Pickwick, Minnesota
Current Conditions -  °F | °C
As of 9:33 AM on Friday 24 Oct 2014 (Local Time) from KONA Reporting Station
Overcast Overcast  
Wind Chill: 54°   Ceiling: 700
Heat Index: 54°   Visibility: 10mi
Dew Point: 52°   Wind: 6mph
Humidity: 94%   Direction: 130°SE
Pressure: 29.97"   Gusts: NA
Location:  43.9823°N, 91.6349°W
Report Text: KONA 241433Z AUTO 13005KT 10SM OVC007 12/11 A2997 RMK AO2
Loading
Personal Weather Stations






























Interactive Weather Map
Tropical Storm Tracking
New forecast layout! Learn more

10-Day Weather Forecast

Advertisements
Track Severe Weather on mobile